createdAt,value
2022-09-28T00:01:19.340Z,11.23
2022-09-28T00:03:51.853Z,11.25
2022-09-28T00:06:22.157Z,11.25
2022-09-28T00:08:50.977Z,11.26
2022-09-28T00:11:21.364Z,11.27
2022-09-28T00:13:51.471Z,11.30
2022-09-28T00:16:21.347Z,11.33
2022-09-28T00:18:51.534Z,11.32
2022-09-28T00:21:21.698Z,11.35
2022-09-28T00:24:10.837Z,11.38
2022-09-28T00:26:40.762Z,11.38
2022-09-28T00:29:15.516Z,11.38
2022-09-28T00:31:43.735Z,11.38
2022-09-28T00:34:13.868Z,11.37
2022-09-28T00:36:45.779Z,11.35
2022-09-28T00:39:15.621Z,11.29
2022-09-28T00:41:44.115Z,11.25
2022-09-28T00:44:45.614Z,11.24
2022-09-28T00:47:31.343Z,11.19
2022-09-28T00:50:04.654Z,11.16
2022-09-28T00:52:36.425Z,11.18
2022-09-28T00:55:09.584Z,11.14
2022-09-28T00:57:39.726Z,11.11
2022-09-28T01:00:09.235Z,11.05
2022-09-28T01:02:37.511Z,11.09
2022-09-28T01:05:10.369Z,11.09
2022-09-28T01:07:38.923Z,11.10
2022-09-28T01:10:08.254Z,11.10
2022-09-28T01:12:36.477Z,11.13
2022-09-28T01:15:06.385Z,11.13
2022-09-28T01:17:49.983Z,11.14
2022-09-28T01:20:50.206Z,11.12
2022-09-28T01:23:53.374Z,11.08
2022-09-28T01:26:39.455Z,11.07
2022-09-28T01:29:17.871Z,11.11
2022-09-28T01:31:51.544Z,11.08
2022-09-28T01:34:25.514Z,11.12
2022-09-28T01:36:57.429Z,11.12
2022-09-28T01:39:30.694Z,11.12
2022-09-28T01:42:05.852Z,11.11
2022-09-28T01:44:40.027Z,11.14
2022-09-28T01:47:12.053Z,11.15
2022-09-28T01:49:45.149Z,11.10
2022-09-28T01:52:18.912Z,11.05
2022-09-28T01:54:53.306Z,11.00
2022-09-28T01:57:28.060Z,11.00
2022-09-28T02:00:01.328Z,11.00
2022-09-28T02:02:34.091Z,11.03
2022-09-28T02:05:08.912Z,11.07
2022-09-28T02:07:42.593Z,11.02
2022-09-28T02:10:15.257Z,11.00
2022-09-28T02:12:47.878Z,11.00
2022-09-28T02:15:20.689Z,10.95
2022-09-28T02:17:49.667Z,10.93
2022-09-28T02:20:18.236Z,10.93
2022-09-28T02:22:51.278Z,10.89
2022-09-28T02:25:29.180Z,10.88
2022-09-28T02:28:02.042Z,10.88
2022-09-28T02:30:32.125Z,10.92
2022-09-28T02:33:06.901Z,10.96
2022-09-28T02:35:35.473Z,10.95
2022-09-28T02:38:03.816Z,10.92
2022-09-28T02:40:34.870Z,10.96
2022-09-28T02:43:15.230Z,10.93
2022-09-28T02:45:52.715Z,10.94
2022-09-28T02:48:44.093Z,10.98
2022-09-28T02:51:25.700Z,10.99
2022-09-28T02:54:23.560Z,10.93
2022-09-28T02:57:12.165Z,10.95
2022-09-28T03:00:03.220Z,10.93
2022-09-28T03:02:37.062Z,10.93
2022-09-28T03:05:13.482Z,10.91
2022-09-28T03:07:47.081Z,10.93
2022-09-28T03:10:20.809Z,10.89
2022-09-28T03:12:50.632Z,10.88
2022-09-28T03:15:25.444Z,10.85
2022-09-28T03:17:54.099Z,10.87
2022-09-28T03:20:22.549Z,10.85
2022-09-28T03:23:12.293Z,10.82
2022-09-28T03:25:39.339Z,10.80
2022-09-28T03:28:07.453Z,10.74
2022-09-28T03:30:36.998Z,10.75
2022-09-28T03:33:07.181Z,10.69
2022-09-28T03:35:35.662Z,10.68
2022-09-28T03:38:03.880Z,10.65
2022-09-28T03:40:32.160Z,10.65
2022-09-28T03:43:01.916Z,10.66
2022-09-28T03:45:30.382Z,10.68
2022-09-28T03:48:00.358Z,10.71
2022-09-28T03:50:28.692Z,10.73
2022-09-28T03:52:56.829Z,10.75
2022-09-28T03:55:25.043Z,10.76
2022-09-28T03:57:56.231Z,10.80
2022-09-28T04:00:24.446Z,10.80
2022-09-28T04:02:52.706Z,10.82
2022-09-28T04:05:22.209Z,10.80
2022-09-28T04:07:50.324Z,10.82
2022-09-28T04:10:18.509Z,10.83
2022-09-28T04:12:47.094Z,10.83
2022-09-28T04:15:15.378Z,10.86
2022-09-28T04:17:45.069Z,10.87
2022-09-28T04:20:13.167Z,10.92
2022-09-28T04:22:43.370Z,10.91
2022-09-28T04:25:11.819Z,10.89
2022-09-28T04:27:57.042Z,10.91
2022-09-28T04:30:25.677Z,10.92
2022-09-28T04:32:53.894Z,10.95
2022-09-28T04:35:21.966Z,10.92
2022-09-28T04:37:51.689Z,10.92
2022-09-28T04:40:19.889Z,10.91
2022-09-28T04:42:54.686Z,10.90
2022-09-28T04:45:22.777Z,10.92
2022-09-28T04:47:50.947Z,10.93
2022-09-28T04:50:19.149Z,10.89
2022-09-28T04:52:47.229Z,10.89
2022-09-28T04:55:17.861Z,10.90
2022-09-28T04:57:46.086Z,10.86
2022-09-28T05:00:15.397Z,10.87
2022-09-28T05:02:43.588Z,10.83
2022-09-28T05:05:11.845Z,10.84
2022-09-28T05:07:41.881Z,10.86
2022-09-28T05:10:10.312Z,10.87
2022-09-28T05:12:39.963Z,10.88
2022-09-28T05:15:08.763Z,10.86
2022-09-28T05:17:36.875Z,10.84
2022-09-28T05:20:05.710Z,10.83
2022-09-28T05:22:34.503Z,10.82
2022-09-28T05:25:02.995Z,10.82
2022-09-28T05:27:31.176Z,10.84
2022-09-28T05:30:00.639Z,10.80
2022-09-28T05:32:28.877Z,10.74
2022-09-28T05:34:57.621Z,10.72
2022-09-28T05:37:25.761Z,10.68
2022-09-28T05:39:53.919Z,10.65
2022-09-28T05:42:22.071Z,10.65
2022-09-28T05:44:50.358Z,10.62
2022-09-28T05:47:19.899Z,10.62
2022-09-28T05:49:48.009Z,10.61
2022-09-28T05:52:16.198Z,10.62
2022-09-28T05:54:44.576Z,10.64
2022-09-28T05:57:12.832Z,10.63
2022-09-28T05:59:40.957Z,10.60
2022-09-28T06:02:09.180Z,10.59
2022-09-28T06:04:38.738Z,10.61
2022-09-28T06:07:06.956Z,10.59
2022-09-28T06:09:35.059Z,10.57
2022-09-28T06:12:03.254Z,10.55
2022-09-28T06:14:31.487Z,10.51
2022-09-28T06:16:59.641Z,10.47
2022-09-28T06:19:27.832Z,10.45
2022-09-28T06:21:59.292Z,10.43
2022-09-28T06:24:27.717Z,10.41
2022-09-28T06:26:55.763Z,10.38
2022-09-28T06:29:23.867Z,10.40
2022-09-28T06:31:52.286Z,10.40
2022-09-28T06:34:21.608Z,10.35
2022-09-28T06:36:49.837Z,10.37
2022-09-28T06:39:19.448Z,10.36
2022-09-28T06:41:47.648Z,10.37
2022-09-28T06:44:15.778Z,10.35
2022-09-28T06:46:43.909Z,10.36
2022-09-28T06:49:15.066Z,10.34
2022-09-28T06:51:47.502Z,10.36
2022-09-28T06:54:15.718Z,10.32
2022-09-28T06:56:45.365Z,10.32
2022-09-28T06:59:13.652Z,10.35
2022-09-28T07:01:41.924Z,10.42
2022-09-28T07:04:10.249Z,10.45
2022-09-28T07:06:38.683Z,10.37
2022-09-28T07:09:26.838Z,10.41
2022-09-28T07:11:57.317Z,10.28
2022-09-28T07:14:45.979Z,10.27
2022-09-28T07:17:14.936Z,10.36
2022-09-28T07:19:43.298Z,10.33
2022-09-28T07:22:18.887Z,10.38
2022-09-28T07:24:49.177Z,10.42
2022-09-28T07:27:19.688Z,10.43
2022-09-28T07:29:47.771Z,10.41
2022-09-28T07:32:15.980Z,10.43
2022-09-28T07:34:44.826Z,10.44
2022-09-28T07:37:13.545Z,10.48
2022-09-28T07:39:59.978Z,10.52
2022-09-28T07:42:30.453Z,10.63
2022-09-28T07:44:58.968Z,10.74
2022-09-28T07:47:33.861Z,10.79
2022-09-28T07:50:03.249Z,10.77
2022-09-28T07:52:31.472Z,10.75
2022-09-28T07:55:03.327Z,10.75
2022-09-28T07:57:36.469Z,10.78
2022-09-28T08:00:08.114Z,10.83
2022-09-28T08:02:36.887Z,10.82
2022-09-28T08:05:05.332Z,10.82
2022-09-28T08:07:34.681Z,10.86
2022-09-28T08:10:03.038Z,10.92
2022-09-28T08:12:31.273Z,11.02
2022-09-28T08:15:01.167Z,11.14
2022-09-28T08:17:29.730Z,11.24
2022-09-28T08:20:15.431Z,11.36
2022-09-28T08:22:43.566Z,11.49
2022-09-28T08:25:11.857Z,11.60
2022-09-28T08:27:40.000Z,11.66
2022-09-28T08:30:11.469Z,11.75
2022-09-28T08:32:39.887Z,11.79
2022-09-28T08:35:08.571Z,11.85
2022-09-28T08:37:36.924Z,11.92
2022-09-28T08:40:05.825Z,12.02
2022-09-28T08:42:41.512Z,12.06
2022-09-28T08:45:15.576Z,12.11
2022-09-28T08:48:08.663Z,12.20
2022-09-28T08:50:54.220Z,12.34
2022-09-28T08:53:35.554Z,12.44
2022-09-28T08:56:08.818Z,12.49
2022-09-28T08:58:42.789Z,12.54
2022-09-28T09:01:17.338Z,12.53
2022-09-28T09:03:46.092Z,12.54
2022-09-28T09:06:26.228Z,12.54
2022-09-28T09:09:05.197Z,12.60
2022-09-28T09:11:49.009Z,12.65
2022-09-28T09:14:39.298Z,12.70
2022-09-28T09:17:20.016Z,12.71
2022-09-28T09:19:54.825Z,12.73
2022-09-28T09:22:39.442Z,12.76
2022-09-28T09:25:18.473Z,12.84
2022-09-28T09:28:03.645Z,12.90
2022-09-28T09:30:46.465Z,12.96
2022-09-28T09:33:39.709Z,12.98
2022-09-28T09:36:19.555Z,12.98
2022-09-28T09:39:01.817Z,13.00
2022-09-28T09:41:43.452Z,13.02
2022-09-28T09:44:35.394Z,13.11
2022-09-28T09:47:09.042Z,13.13
2022-09-28T09:49:42.843Z,13.11
2022-09-28T09:52:20.106Z,13.13
2022-09-28T09:54:55.581Z,13.16
2022-09-28T09:57:30.743Z,13.20
2022-09-28T10:00:00.277Z,13.21
2022-09-28T10:02:31.863Z,13.27
2022-09-28T10:05:06.014Z,13.39
2022-09-28T10:07:43.235Z,13.60
2022-09-28T10:10:15.716Z,13.71
2022-09-28T10:12:43.949Z,13.67
2022-09-28T10:15:17.677Z,13.64
2022-09-28T10:17:46.022Z,13.68
2022-09-28T10:20:17.146Z,13.73
2022-09-28T10:22:45.632Z,13.76
2022-09-28T10:25:14.517Z,13.77
2022-09-28T10:27:46.568Z,13.72
2022-09-28T10:30:19.244Z,13.70
2022-09-28T10:32:48.843Z,13.68
2022-09-28T10:35:27.710Z,13.64
2022-09-28T10:37:59.375Z,13.62
2022-09-28T10:40:32.903Z,13.54
2022-09-28T10:43:03.071Z,13.55
2022-09-28T10:45:37.425Z,13.57
2022-09-28T10:48:16.297Z,13.64
2022-09-28T10:50:59.388Z,13.70
2022-09-28T10:53:27.976Z,13.74
2022-09-28T10:56:02.466Z,13.77
2022-09-28T10:58:37.403Z,13.79
2022-09-28T11:01:09.731Z,13.74
2022-09-28T11:03:50.207Z,13.65
2022-09-28T11:06:25.993Z,13.59
2022-09-28T11:08:56.047Z,13.55
2022-09-28T11:11:25.192Z,13.49
2022-09-28T11:13:55.274Z,13.47
2022-09-28T11:16:27.105Z,13.47
2022-09-28T11:18:55.276Z,13.50
2022-09-28T11:21:27.637Z,13.52
2022-09-28T11:24:05.871Z,13.57
2022-09-28T11:26:42.658Z,13.58
2022-09-28T11:29:27.866Z,13.62
2022-09-28T11:32:01.373Z,13.65
2022-09-28T11:34:57.504Z,13.74
2022-09-28T11:37:41.655Z,14.02
2022-09-28T11:40:26.019Z,14.37
2022-09-28T11:45:53.931Z,15.11
2022-09-28T11:48:26.996Z,15.31
2022-09-28T11:50:59.938Z,15.34
2022-09-28T11:53:36.970Z,15.20
2022-09-28T11:56:15.964Z,15.02
2022-09-28T11:58:48.385Z,14.86
2022-09-28T12:01:24.148Z,14.70
2022-09-28T12:03:56.847Z,14.51
2022-09-28T12:06:32.528Z,14.37
2022-09-28T12:09:12.110Z,14.25
2022-09-28T12:11:45.188Z,14.19
2022-09-28T12:14:21.836Z,14.19
2022-09-28T12:17:11.266Z,14.25
2022-09-28T12:19:48.469Z,14.27
2022-09-28T12:22:20.850Z,14.22
2022-09-28T12:24:54.179Z,14.17
2022-09-28T12:27:28.535Z,14.07
2022-09-28T12:30:02.123Z,13.88
2022-09-28T12:32:37.469Z,13.63
2022-09-28T12:35:13.355Z,13.44
2022-09-28T12:38:08.968Z,13.32
2022-09-28T12:40:49.395Z,13.26
2022-09-28T12:43:40.715Z,13.20
2022-09-28T12:46:25.178Z,13.23
2022-09-28T12:52:19.174Z,13.32
2022-09-28T12:55:06.065Z,13.38
2022-09-28T12:57:50.912Z,13.40
2022-09-28T13:00:23.568Z,13.44
2022-09-28T13:03:19.306Z,13.48
2022-09-28T13:06:16.208Z,13.51
2022-09-28T13:08:55.469Z,13.53
2022-09-28T13:11:34.802Z,13.55
2022-09-28T13:14:33.869Z,13.50
2022-09-28T13:17:12.118Z,13.51
2022-09-28T13:19:52.387Z,13.53
2022-09-28T13:22:33.725Z,13.58
2022-09-28T13:25:11.723Z,13.66
2022-09-28T13:27:45.515Z,13.93
2022-09-28T13:30:17.376Z,14.24
2022-09-28T13:32:46.853Z,14.52
2022-09-28T13:35:19.578Z,14.81
2022-09-28T13:37:47.904Z,15.06
2022-09-28T13:40:16.245Z,15.30
2022-09-28T13:43:19.415Z,15.50
2022-09-28T13:45:56.856Z,15.40
2022-09-28T13:48:35.856Z,15.20
2022-09-28T13:51:13.851Z,14.97
2022-09-28T13:54:03.351Z,14.70
2022-09-28T13:56:38.912Z,14.46
2022-09-28T13:59:16.832Z,14.26
2022-09-28T14:01:55.755Z,14.06
2022-09-28T14:04:25.413Z,13.94
2022-09-28T14:06:57.692Z,13.83
2022-09-28T14:09:42.108Z,13.71
2022-09-28T14:12:44.543Z,13.54
2022-09-28T14:15:45.258Z,13.52
2022-09-28T14:18:26.900Z,13.53
2022-09-28T14:21:24.368Z,13.48
2022-09-28T14:24:15.587Z,13.53
2022-09-28T14:27:11.589Z,13.64
2022-09-28T14:29:40.518Z,13.64
2022-09-28T14:32:24.742Z,13.59
2022-09-28T14:35:04.666Z,13.57
2022-09-28T14:37:52.630Z,13.61
2022-09-28T14:40:45.865Z,13.67
2022-09-28T14:43:27.435Z,13.70
2022-09-28T14:46:36.952Z,13.67
2022-09-28T14:49:26.849Z,13.66
2022-09-28T14:52:05.401Z,13.64
2022-09-28T14:54:50.274Z,13.63
2022-09-28T14:57:21.449Z,13.60
2022-09-28T14:59:49.715Z,13.57
2022-09-28T15:02:25.191Z,13.53
2022-09-28T15:04:59.928Z,13.54
2022-09-28T15:07:34.437Z,13.62
2022-09-28T15:10:03.493Z,13.68
2022-09-28T15:12:32.717Z,13.73
2022-09-28T15:15:03.591Z,13.75
2022-09-28T15:17:39.516Z,13.74
2022-09-28T15:20:22.760Z,13.69
2022-09-28T15:22:57.141Z,13.67
2022-09-28T15:25:27.009Z,13.65
2022-09-28T15:27:56.848Z,13.60
2022-09-28T15:30:28.571Z,13.59
2022-09-28T15:33:17.878Z,13.53
2022-09-28T15:35:49.998Z,13.53
2022-09-28T15:38:19.624Z,13.53
2022-09-28T15:40:48.604Z,13.51
2022-09-28T15:43:29.137Z,13.47
2022-09-28T15:46:02.786Z,13.39
2022-09-28T15:48:40.812Z,13.34
2022-09-28T15:51:11.831Z,13.31
2022-09-28T15:53:56.225Z,13.29
2022-09-28T15:56:24.517Z,13.31
2022-09-28T15:59:12.552Z,13.37
2022-09-28T16:01:42.311Z,13.40
2022-09-28T16:04:40.489Z,13.41
2022-09-28T16:07:32.272Z,13.38
2022-09-28T16:10:27.229Z,13.35
2022-09-28T16:12:58.928Z,13.32
2022-09-28T16:15:30.281Z,13.27
2022-09-28T16:18:03.206Z,13.24
2022-09-28T16:20:34.376Z,13.25
2022-09-28T16:23:10.041Z,13.26
2022-09-28T16:25:40.238Z,13.24
2022-09-28T16:28:09.111Z,13.24
2022-09-28T16:30:37.413Z,13.25
2022-09-28T16:33:07.676Z,13.24
2022-09-28T16:35:52.115Z,13.25
2022-09-28T16:38:21.127Z,13.26
2022-09-28T16:40:53.932Z,13.28
2022-09-28T16:43:27.173Z,13.30
2022-09-28T16:45:57.695Z,13.36
2022-09-28T16:48:28.092Z,13.41
2022-09-28T16:50:56.309Z,13.43
2022-09-28T16:53:42.205Z,13.47
2022-09-28T16:56:12.701Z,13.48
2022-09-28T16:58:42.641Z,13.43
2022-09-28T17:01:13.053Z,13.41
2022-09-28T17:03:47.046Z,13.41
2022-09-28T17:06:16.261Z,13.41
2022-09-28T17:08:44.840Z,13.38
2022-09-28T17:11:22.768Z,13.34
2022-09-28T17:13:56.906Z,13.30
2022-09-28T17:16:57.291Z,13.28
2022-09-28T17:19:20.624Z,13.24
2022-09-28T17:21:49.449Z,13.22
2022-09-28T17:24:17.531Z,13.19
2022-09-28T17:26:49.122Z,13.18
2022-09-28T17:29:18.136Z,13.16
2022-09-28T17:31:47.806Z,13.18
2022-09-28T17:34:17.055Z,13.19
2022-09-28T17:36:46.246Z,13.18
2022-09-28T17:39:18.467Z,13.19
2022-09-28T17:41:48.361Z,13.20
2022-09-28T17:44:16.771Z,13.19
2022-09-28T17:46:49.179Z,13.21
2022-09-28T17:49:18.804Z,13.19
2022-09-28T17:51:47.211Z,13.17
2022-09-28T17:54:17.059Z,13.14
2022-09-28T17:56:46.297Z,13.11
2022-09-28T17:59:19.006Z,13.06
2022-09-28T18:01:48.330Z,13.07
2022-09-28T18:04:33.768Z,13.02
2022-09-28T18:07:05.545Z,13.03
2022-09-28T18:09:33.834Z,13.03
2022-09-28T18:12:05.428Z,13.04
2022-09-28T18:14:35.956Z,13.01
2022-09-28T18:17:04.566Z,13.02
2022-09-28T18:19:32.857Z,13.01
2022-09-28T18:22:01.839Z,12.97
2022-09-28T18:24:32.523Z,12.94
2022-09-28T18:27:01.153Z,12.90
2022-09-28T18:29:33.077Z,12.89
2022-09-28T18:32:03.607Z,12.88
2022-09-28T18:34:31.783Z,12.84
2022-09-28T18:36:59.898Z,12.86
2022-09-28T18:39:28.121Z,12.84
2022-09-28T18:41:56.283Z,12.81
2022-09-28T18:44:24.905Z,12.78
2022-09-28T18:46:53.063Z,12.74
2022-09-28T18:49:22.814Z,12.75
2022-09-28T18:51:51.214Z,12.68
2022-09-28T18:54:19.490Z,12.65
2022-09-28T18:56:47.598Z,12.59
2022-09-28T18:59:16.036Z,12.56
2022-09-28T19:01:44.373Z,12.52
2022-09-28T19:04:13.745Z,12.47
2022-09-28T19:06:44.852Z,12.44
2022-09-28T19:09:13.600Z,12.42
2022-09-28T19:11:41.788Z,12.39
2022-09-28T19:14:11.687Z,12.38
2022-09-28T19:16:39.809Z,12.36
2022-09-28T19:19:08.930Z,12.33
2022-09-28T19:21:37.266Z,12.30
2022-09-28T19:24:07.154Z,12.26
2022-09-28T19:26:35.558Z,12.24
2022-09-28T19:29:03.933Z,12.23
2022-09-28T19:31:32.719Z,12.19
2022-09-28T19:34:00.939Z,12.16
2022-09-28T19:36:30.288Z,12.16
2022-09-28T19:39:02.961Z,12.14
2022-09-28T19:41:44.554Z,12.11
2022-09-28T19:44:24.700Z,12.08
2022-09-28T19:46:55.426Z,12.05
2022-09-28T19:49:24.629Z,12.02
2022-09-28T19:52:14.396Z,11.99
2022-09-28T19:54:45.055Z,11.97
2022-09-28T19:57:16.169Z,11.95
2022-09-28T19:59:45.940Z,11.94
2022-09-28T20:02:16.750Z,11.91
2022-09-28T20:04:44.879Z,11.90
2022-09-28T20:07:13.550Z,11.88
2022-09-28T20:09:42.142Z,11.89
2022-09-28T20:12:10.507Z,11.87
2022-09-28T20:14:40.554Z,11.87
2022-09-28T20:17:08.976Z,11.84
2022-09-28T20:19:37.512Z,11.81
2022-09-28T20:22:05.797Z,11.76
2022-09-28T20:24:34.127Z,11.77
2022-09-28T20:27:02.960Z,11.76
2022-09-28T20:29:33.601Z,11.74
2022-09-28T20:32:04.215Z,11.73
2022-09-28T20:34:33.692Z,11.71
2022-09-28T20:37:01.925Z,11.71
2022-09-28T20:39:30.259Z,11.67
2022-09-28T20:41:58.490Z,11.65
2022-09-28T20:44:26.649Z,11.62
2022-09-28T20:46:55.492Z,11.65
2022-09-28T20:49:25.042Z,11.61
2022-09-28T20:51:53.321Z,11.57
2022-09-28T20:54:22.262Z,11.54
2022-09-28T20:56:50.467Z,11.51
2022-09-28T20:59:18.643Z,11.51
2022-09-28T21:01:46.846Z,11.50
2022-09-28T21:04:15.279Z,11.49
2022-09-28T21:06:45.213Z,11.50
2022-09-28T21:09:14.563Z,11.47
2022-09-28T21:11:43.121Z,11.46
2022-09-28T21:14:11.368Z,11.44
2022-09-28T21:16:40.083Z,11.41
2022-09-28T21:19:08.215Z,11.38
2022-09-28T21:21:36.352Z,11.37
2022-09-28T21:24:06.101Z,11.37
2022-09-28T21:26:35.290Z,11.35
2022-09-28T21:29:05.938Z,11.31
2022-09-28T21:31:40.004Z,11.29
2022-09-28T21:34:08.562Z,11.28
2022-09-28T21:36:36.773Z,11.26
2022-09-28T21:39:10.224Z,11.24
2022-09-28T21:41:39.002Z,11.23
2022-09-28T21:44:07.597Z,11.22
2022-09-28T21:46:36.615Z,11.22
2022-09-28T21:49:06.551Z,11.22
2022-09-28T21:51:35.374Z,11.22
2022-09-28T21:54:03.459Z,11.24
2022-09-28T21:56:33.079Z,11.23
2022-09-28T21:59:01.614Z,11.22
2022-09-28T22:01:29.892Z,11.18
2022-09-28T22:03:58.412Z,11.18
2022-09-28T22:06:28.415Z,11.18
2022-09-28T22:08:57.261Z,11.15
2022-09-28T22:11:27.368Z,11.16
2022-09-28T22:13:59.368Z,11.16
2022-09-28T22:16:29.871Z,11.14
2022-09-28T22:18:58.128Z,11.14
2022-09-28T22:21:28.022Z,11.12
2022-09-28T22:24:01.036Z,11.11
2022-09-28T22:26:30.578Z,11.09
2022-09-28T22:29:01.720Z,11.08
2022-09-28T22:31:32.500Z,11.05
2022-09-28T22:34:01.366Z,11.02
2022-09-28T22:36:30.051Z,11.02
2022-09-28T22:38:59.424Z,11.02
2022-09-28T22:41:28.495Z,10.97
2022-09-28T22:43:57.035Z,10.97
2022-09-28T22:46:28.045Z,10.96
2022-09-28T22:48:58.368Z,10.94
2022-09-28T22:51:28.985Z,10.91
2022-09-28T22:53:57.737Z,10.90
2022-09-28T22:56:26.127Z,10.88
2022-09-28T22:58:54.625Z,10.87
2022-09-28T23:01:24.617Z,10.85
2022-09-28T23:03:55.174Z,10.86
2022-09-28T23:06:24.973Z,10.86
2022-09-28T23:08:54.077Z,10.82
2022-09-28T23:11:22.614Z,10.82
2022-09-28T23:13:51.294Z,10.81
2022-09-28T23:16:20.242Z,10.81
2022-09-28T23:18:49.350Z,10.80
2022-09-28T23:21:20.768Z,10.80
2022-09-28T23:23:53.576Z,10.79
2022-09-28T23:26:24.139Z,10.77
2022-09-28T23:28:52.759Z,10.77
2022-09-28T23:31:23.113Z,10.74
2022-09-28T23:33:51.791Z,10.75
2022-09-28T23:36:21.289Z,10.75
2022-09-28T23:38:49.435Z,10.73
2022-09-28T23:41:17.637Z,10.71
2022-09-28T23:43:45.867Z,10.68
2022-09-28T23:46:17.245Z,10.69
2022-09-28T23:48:48.681Z,10.67
2022-09-28T23:51:16.869Z,10.67
2022-09-28T23:53:47.089Z,10.67
2022-09-28T23:56:15.718Z,10.65
2022-09-28T23:58:44.023Z,10.63
